Brandonville, West Virginia
Current Conditions -  °F | °C
As of 12:53 AM on Wednesday 28 Jan 2015 (Local Time) from KMGW Reporting Station
Overcast Overcast  
Wind Chill: 10°   Ceiling: 1900
Heat Index: 18°   Visibility: 10mi
Dew Point:   Wind: 6mph
Humidity: 68%   Direction: 320°NW
Pressure: 30.15"   Gusts: NA
Location:  39.6431°N, 79.6244°W
Report Text: KMGW 280553Z AUTO 32005KT 10SM BKN019 OVC024 M08/M13 A3015 RMK AO2 SLP229 60000 T10781128 11056 21078 51019 TSNO
Loading
Personal Weather Stations






























Interactive Weather Map New forecast layout! Learn more

10-Day Weather Forecast

Advertisements
Track Severe Weather on mobile